Time;durP1;ratioP1;P1;durP2;ratioP2;P2;SDS_P1;SDS_P2;PMS_P1;PMS_P2;Temp;Humidity;BMP_temperature;BMP_pressure;BME280_temperature;BME280_humidity;BME280_pressure;Samples;Min_cycle;Max_cycle;Signal;HPM_P1;HPM_P2
2022/12/17 13:06:55;;;;;;;34.73;18.83;;;4.20;79.40;;;4.94;48.50;99611.34;4967938;28;123525;-80
2022/12/17 13:09:25;;;;;;;34.60;19.60;;;4.40;79.00;;;5.09;47.06;99614.25;4957565;28;118582;-81
2022/12/17 13:12:01;;;;;;;34.10;19.63;;;4.60;78.70;;;5.22;46.96;99605.66;4976483;28;119545;-82
2022/12/17 13:14:55;;;;;;;33.73;18.40;;;4.70;78.20;;;5.37;46.59;99602.22;4991911;28;122451;-81
2022/12/17 13:17:27;;;;;;;32.00;18.00;;;4.90;77.50;;;5.46;46.25;99600.69;4975224;28;124236;-80
2022/12/17 13:19:56;;;;;;;31.67;18.60;;;5.00;77.20;;;5.54;46.35;99602.97;4979402;28;120253;-81
2022/12/17 13:22:28;;;;;;;32.97;18.33;;;5.10;76.60;;;5.65;46.07;99598.41;4973830;28;118692;-81
2022/12/17 13:25:20;;;;;;;30.87;16.90;;;5.30;76.40;;;5.76;45.54;99594.66;4972496;28;123589;-80
2022/12/17 13:27:49;;;;;;;29.10;18.87;;;5.40;75.70;;;5.79;45.43;99600.72;4958165;28;122842;-80
2022/12/17 13:30:16;;;;;;;34.53;19.73;;;5.50;75.30;;;5.79;44.75;99603.44;4992919;28;119083;-80
2022/12/17 13:33:21;;;;;;;31.50;18.23;;;6.30;75.30;;;5.76;44.39;99599.31;4977363;28;118288;-80
2022/12/17 13:36:37;;;;;;;32.57;19.30;;;5.60;74.10;;;5.64;44.84;99601.38;4973477;28;122776;-80
2022/12/17 13:39:38;;;;;;;31.63;17.47;;;5.50;73.30;;;5.48;44.22;99609.47;4941911;28;123201;-80
2022/12/17 13:42:04;;;;;;;30.57;17.83;;;5.40;72.70;;;5.37;43.96;99601.41;4970802;28;119006;-80
2022/12/17 13:44:46;;;;;;;35.10;19.90;;;5.30;72.80;;;5.30;44.16;99605.19;4976801;28;118950;-80
2022/12/17 13:47:34;;;;;;;34.93;19.30;;;5.70;72.90;;;5.20;44.48;99602.31;4970501;28;123928;-80
2022/12/17 13:50:20;;;;;;;37.60;20.20;;;5.10;72.20;;;5.07;44.71;99603.53;4973046;28;121586;-80
2022/12/17 13:52:47;;;;;;;34.90;19.97;;;5.00;72.20;;;4.95;44.77;99604.78;4979071;28;119289;-83
2022/12/17 13:55:27;;;;;;;35.90;18.30;;;4.90;72.40;;;4.86;44.70;99601.66;4973229;28;119030;-79
2022/12/17 13:57:54;;;;;;;39.87;19.47;;;4.70;72.00;;;4.74;45.04;99612.75;4961156;28;124002;-79
2022/12/17 14:00:29;;;;;;;36.10;19.80;;;4.60;72.00;;;4.66;44.69;99602.22;4944512;28;122912;-77
2022/12/17 14:02:56;;;;;;;51.13;25.50;;;4.60;72.10;;;4.55;44.33;99611.41;4959477;28;117994;-78
2022/12/17 14:05:26;;;;;;;44.07;24.00;;;4.40;72.10;;;4.46;45.08;99612.91;4930218;28;117482;-77
2022/12/17 14:07:53;;;;;;;39.93;22.10;;;4.30;72.10;;;4.37;45.05;99616.06;4957126;28;124688;-78
2022/12/17 14:10:20;;;;;;;38.83;19.77;;;4.20;72.60;;;4.32;45.69;99624.19;4962405;28;123810;-77
2022/12/17 14:12:48;;;;;;;35.73;20.57;;;4.10;73.00;;;4.27;45.78;99629.63;4965130;28;118936;-79
2022/12/17 14:15:25;;;;;;;32.60;18.70;;;4.10;72.80;;;4.20;45.52;99634.41;4950714;28;120241;-81
2022/12/17 14:17:53;;;;;;;36.07;20.37;;;4.00;72.60;;;4.11;45.61;99634.03;4936989;28;123263;-81
2022/12/17 14:20:39;;;;;;;38.13;20.23;;;3.90;72.70;;;4.05;45.15;99631.44;4932646;28;123294;-80
2022/12/17 14:23:29;;;;;;;35.00;18.83;;;3.90;72.70;;;3.94;45.66;99638.66;4955986;28;117464;-81
2022/12/17 14:25:56;;;;;;;34.07;19.30;;;3.70;72.60;;;3.79;45.60;99636.50;4951984;28;118824;-81
2022/12/17 14:28:47;;;;;;;34.00;18.40;;;3.60;72.50;;;3.73;45.87;99637.47;4953911;28;123977;-83
2022/12/17 14:31:17;;;;;;;39.50;21.10;;;3.60;72.70;;;3.63;45.80;99650.97;4954830;28;122522;-80
2022/12/17 14:33:45;;;;;;;34.73;19.80;;;3.50;72.90;;;3.54;45.54;99643.16;4957169;28;119504;-80
2022/12/17 14:36:14;;;;;;;36.27;18.30;;;3.40;73.00;;;3.47;46.07;99645.22;4947328;28;118513;-79
2022/12/17 14:38:54;;;;;;;34.87;20.77;;;4.20;73.80;;;3.39;46.52;99653.00;4964772;28;124481;-78
2022/12/17 14:44:23;;;;;;;35.80;21.33;;;3.10;73.20;;;3.19;46.18;99650.69;4962746;28;119939;-79
2022/12/17 14:47:18;;;;;;;36.70;19.80;;;3.40;73.50;;;3.05;46.75;99648.22;4953833;28;118998;-82
2022/12/17 14:50:10;;;;;;;44.33;22.13;;;2.90;73.10;;;2.86;46.49;99649.47;4950049;28;123830;-81
2022/12/17 14:52:49;;;;;;;31.60;18.67;;;2.60;73.10;;;2.74;46.84;99656.84;4952571;28;123853;-80
2022/12/17 14:55:57;;;;;;;37.60;19.83;;;2.50;73.40;;;2.67;46.94;99650.72;4954628;28;118060;-80
2022/12/17 14:58:26;;;;;;;34.43;18.80;;;2.40;73.70;;;2.55;47.22;99653.44;4956621;28;118941;-82
2022/12/17 15:01:05;;;;;;;39.23;19.87;;;2.40;74.00;;;2.50;47.65;99651.44;4966916;28;122995;-80
2022/12/17 15:03:36;;;;;;;35.03;18.10;;;2.30;74.50;;;2.43;47.69;99651.56;4954883;28;123831;-83
2022/12/17 15:06:07;;;;;;;36.07;19.27;;;2.20;74.30;;;2.36;48.16;99650.00;4955281;28;120103;-81
2022/12/17 15:08:41;;;;;;;37.50;19.77;;;2.10;74.40;;;2.33;47.69;99661.41;4953661;28;120158;-84
2022/12/17 15:11:13;;;;;;;38.10;20.67;;;2.10;74.80;;;2.26;47.93;99657.94;4970693;28;123919;-84
2022/12/17 15:13:41;;;;;;;39.70;18.73;;;2.00;74.90;;;2.20;48.01;99657.84;4954239;28;121813;-83
2022/12/17 15:16:09;;;;;;;34.60;18.53;;;2.00;75.10;;;2.17;48.16;99660.22;4973793;28;119274;-80
2022/12/17 15:18:36;;;;;;;29.27;18.60;;;1.90;75.20;;;2.14;48.45;99664.22;4949934;28;119072;-81
2022/12/17 15:21:04;;;;;;;30.77;17.40;;;2.00;75.40;;;2.11;48.29;99664.72;4970452;28;123246;-82
2022/12/17 15:23:32;;;;;;;37.27;19.70;;;3.00;76.50;;;2.06;48.40;99667.31;4967980;28;122720;-81
2022/12/17 15:25:58;;;;;;;34.20;18.00;;;1.80;75.70;;;2.02;48.46;99660.69;4965378;28;119250;-80
2022/12/17 15:28:25;;;;;;;34.27;19.87;;;1.80;75.90;;;1.98;48.71;99659.47;4949758;28;119024;-81
2022/12/17 15:30:52;;;;;;;40.70;20.23;;;1.70;76.00;;;1.95;49.14;99665.41;4969626;28;123975;-84
2022/12/17 15:33:19;;;;;;;36.23;18.90;;;1.70;76.00;;;1.89;49.07;99660.91;4970613;28;123955;-84
2022/12/17 15:35:45;;;;;;;35.33;19.33;;;1.60;75.90;;;1.86;49.33;99666.81;4967558;28;119861;-80
2022/12/17 15:38:12;;;;;;;35.33;18.83;;;1.60;76.20;;;1.81;49.01;99670.25;4954631;28;118924;-84
2022/12/17 15:40:39;;;;;;;37.90;19.93;;;1.50;76.30;;;1.79;49.43;99671.53;4968277;28;123996;-81
2022/12/17 15:43:10;;;;;;;39.63;18.67;;;1.50;76.50;;;1.77;49.27;99675.34;4969788;28;124103;-81
2022/12/17 15:45:48;;;;;;;43.90;22.97;;;1.50;76.60;;;1.72;49.26;99672.47;4964533;28;118423;-82
2022/12/17 15:48:22;;;;;;;43.40;24.10;;;1.40;76.60;;;1.63;49.56;99679.31;4937832;28;117772;-83
2022/12/17 15:50:48;;;;;;;43.67;22.93;;;1.30;76.60;;;1.47;49.63;99679.97;4954047;28;122515;-81
2022/12/17 15:53:15;;;;;;;45.47;23.80;;;1.20;76.80;;;1.35;50.20;99685.38;4968632;28;123810;-84
2022/12/17 15:55:44;;;;;;;44.20;22.80;;;1.00;76.90;;;1.24;50.27;99684.25;4951112;28;119057;-84
2022/12/17 15:58:11;;;;;;;37.63;20.40;;;0.90;77.20;;;1.17;50.26;99691.66;4966801;28;119395;-81
2022/12/17 16:00:37;;;;;;;47.40;21.03;;;0.80;77.30;;;1.14;50.38;99694.84;4941139;28;124961;-81
2022/12/17 16:03:04;;;;;;;41.10;21.47;;;0.80;77.60;;;1.14;50.69;99686.69;4950916;28;124072;-85
2022/12/17 16:05:32;;;;;;;45.97;23.67;;;2.00;78.80;;;1.11;50.55;99698.03;4950151;28;119778;-81
2022/12/17 16:08:01;;;;;;;52.70;25.33;;;0.80;77.80;;;1.07;50.58;99708.53;4945916;28;119112;-81
2022/12/17 16:10:29;;;;;;;46.03;22.80;;;1.60;79.20;;;1.01;50.28;99708.63;4933326;28;123191;-86
2022/12/17 16:12:56;;;;;;;56.83;25.03;;;0.70;77.70;;;0.93;50.57;99707.03;4923262;28;122970;-80
2022/12/17 16:15:24;;;;;;;45.63;23.33;;;0.60;77.60;;;0.84;50.31;99706.50;4930195;28;119198;-81
2022/12/17 16:17:50;;;;;;;41.60;22.00;;;0.50;78.10;;;0.78;50.37;99712.00;4930531;28;117958;-80
2022/12/17 16:20:17;;;;;;;47.80;23.90;;;0.60;77.80;;;0.73;50.68;99707.28;4946657;28;124051;-80
2022/12/17 16:22:43;;;;;;;50.57;22.43;;;0.40;77.60;;;0.68;50.57;99712.56;4933602;28;124240;-79
2022/12/17 16:25:11;;;;;;;43.87;22.40;;;0.40;77.70;;;0.62;50.45;99706.13;4929757;28;119498;-78
2022/12/17 16:27:37;;;;;;;52.13;25.43;;;0.30;77.70;;;0.58;50.29;99714.94;4946291;28;119127;-78
2022/12/17 16:30:05;;;;;;;48.07;24.43;;;0.30;77.80;;;0.51;50.99;99714.19;4945339;28;123727;-79
2022/12/17 16:32:32;;;;;;;52.63;25.13;;;0.20;77.80;;;0.41;50.84;99710.09;4948341;28;123950;-78
2022/12/17 16:34:59;;;;;;;46.03;23.90;;;0.20;77.80;;;0.33;51.09;99715.81;4947529;28;119654;-78
2022/12/17 16:37:25;;;;;;;44.17;22.73;;;0.10;77.80;;;0.28;51.47;99714.81;4942227;28;118609;-79
2022/12/17 16:39:52;;;;;;;44.63;23.03;;;0.00;77.90;;;0.24;51.23;99722.56;4948091;28;124076;-80
2022/12/17 16:42:18;;;;;;;49.77;22.90;;;0.20;79.00;;;0.22;50.97;99711.94;4937241;28;123511;-80
2022/12/17 16:44:45;;;;;;;46.10;21.70;;;0.00;78.30;;;0.20;51.71;99707.78;4956557;28;121171;-83
2022/12/17 16:47:11;;;;;;;43.17;22.20;;;0.00;78.40;;;0.16;51.08;99712.84;4943124;28;117886;-81
2022/12/17 16:49:39;;;;;;;40.77;21.00;;;-0.10;78.50;;;0.16;51.82;99712.84;4953369;28;124153;-82
2022/12/17 16:52:05;;;;;;;46.13;23.10;;;-0.10;78.70;;;0.17;52.28;99714.50;4930639;28;123689;-80
2022/12/17 16:54:32;;;;;;;51.33;23.73;;;-0.10;78.90;;;0.18;51.77;99721.56;4952189;28;119364;-80
2022/12/17 16:57:00;;;;;;;48.67;23.30;;;-0.20;79.00;;;0.17;51.87;99719.09;4936916;28;119020;-80
2022/12/17 16:59:27;;;;;;;43.27;23.77;;;-0.10;79.10;;;0.15;51.70;99718.47;4955983;28;123879;-78
2022/12/17 17:01:55;;;;;;;47.30;25.20;;;-0.20;79.20;;;0.10;51.49;99707.44;4938629;28;124001;-80
2022/12/17 17:04:23;;;;;;;47.07;22.90;;;-0.20;79.20;;;0.08;52.15;99715.84;4953976;28;119124;-79
2022/12/17 17:06:54;;;;;;;46.30;22.60;;;-0.20;79.40;;;0.07;52.23;99719.59;4961716;28;118214;-79
2022/12/17 17:09:24;;;;;;;55.70;24.43;;;-0.30;79.40;;;0.06;52.23;99722.53;4932071;28;123952;-80
2022/12/17 17:11:55;;;;;;;45.67;21.23;;;-0.30;79.60;;;0.05;52.84;99724.41;4950816;28;123959;-81
2022/12/17 17:14:22;;;;;;;40.57;21.60;;;-0.30;79.60;;;0.02;52.45;99724.03;4977840;28;118704;-82
2022/12/17 17:16:51;;;;;;;53.83;24.53;;;-0.30;79.70;;;0.02;51.98;99724.84;4958560;28;119071;-79
2022/12/17 17:19:18;;;;;;;46.63;23.00;;;-0.20;79.90;;;0.01;52.73;99731.34;4946814;28;123997;-79
2022/12/17 17:21:52;;;;;;;44.37;23.90;;;-0.40;79.70;;;0.02;52.32;99729.44;4950412;28;123808;-81
2022/12/17 17:24:22;;;;;;;51.30;24.53;;;-0.20;80.00;;;-0.03;52.48;99730.97;4951340;28;119231;-82
2022/12/17 17:26:50;;;;;;;42.40;21.67;;;-0.40;79.80;;;-0.02;52.44;99737.22;4936098;28;118652;-80
2022/12/17 17:29:17;;;;;;;43.20;22.30;;;-0.40;79.80;;;-0.03;52.31;99739.09;4921568;28;123612;-80
2022/12/17 17:31:44;;;;;;;47.17;21.43;;;-0.40;79.90;;;-0.04;52.76;99748.28;4966145;28;124340;-80
2022/12/17 17:34:13;;;;;;;54.03;25.77;;;-0.40;80.10;;;-0.03;52.42;99754.56;4947643;28;119875;-80
2022/12/17 17:36:41;;;;;;;56.90;28.60;;;1.00;81.20;;;-0.06;52.76;99753.09;4951858;28;119996;-79
2022/12/17 17:39:07;;;;;;;52.77;25.50;;;-0.50;80.00;;;-0.07;52.68;99734.31;4950327;28;122932;-78
2022/12/17 17:41:35;;;;;;;44.90;23.10;;;-0.30;80.30;;;-0.08;52.67;99747.09;4941560;28;124009;-78
2022/12/17 17:44:07;;;;;;;54.70;25.20;;;-0.50;80.20;;;-0.13;53.03;99748.78;4946448;28;119242;-79
2022/12/17 17:46:34;;;;;;;50.97;25.10;;;-0.50;80.90;;;-0.23;52.38;99750.09;4948765;28;119587;-80
2022/12/17 17:49:03;;;;;;;47.47;23.60;;;-0.70;80.20;;;-0.28;53.79;99743.66;4955363;28;124142;-80
2022/12/17 17:51:37;;;;;;;50.20;24.97;;;-0.70;81.00;;;-0.29;53.65;99755.56;4965918;28;123756;-79
2022/12/17 17:54:04;;;;;;;50.30;24.33;;;-0.80;81.00;;;-0.36;53.75;99758.31;4965499;28;119501;-79
2022/12/17 17:56:34;;;;;;;49.10;25.80;;;-0.70;81.10;;;-0.39;53.20;99749.78;4960980;28;118377;-80
2022/12/17 17:59:12;;;;;;;51.43;24.20;;;-0.80;81.00;;;-0.43;53.52;99762.13;4951676;28;123117;-81
2022/12/17 18:01:42;;;;;;;48.60;23.83;;;-0.80;81.00;;;-0.47;53.22;99767.97;4949759;28;124396;-80
2022/12/17 18:04:14;;;;;;;47.57;24.03;;;-0.90;80.90;;;-0.51;52.76;99761.34;4972863;28;119707;-81
2022/12/17 18:06:42;;;;;;;68.90;26.03;;;-0.90;80.90;;;-0.56;53.86;99753.00;4973912;28;118981;-83
2022/12/17 18:09:10;;;;;;;49.30;23.27;;;-1.00;80.90;;;-0.59;53.73;99760.72;4967566;28;124178;-81
2022/12/17 18:11:39;;;;;;;44.23;22.57;;;-0.90;80.90;;;-0.62;53.52;99764.69;4970166;28;123974;-80
2022/12/17 18:14:08;;;;;;;45.57;22.77;;;-1.00;80.90;;;-0.70;53.53;99759.53;4967848;28;119234;-78
2022/12/17 18:16:42;;;;;;;50.27;22.60;;;-1.10;80.80;;;-0.74;53.32;99761.00;4968637;28;118245;-80
2022/12/17 18:19:19;;;;;;;49.80;24.90;;;0.40;82.40;;;-0.77;53.76;99772.31;4966131;28;124026;-80
2022/12/17 18:21:47;;;;;;;47.83;24.53;;;-1.20;81.10;;;-0.84;54.12;99774.19;4966999;28;123989;-80
2022/12/17 18:24:21;;;;;;;51.37;26.53;;;-1.20;81.20;;;-0.88;53.32;99778.41;4968348;28;120328;-81
2022/12/17 18:26:50;;;;;;;52.57;25.13;;;-1.30;81.30;;;-0.96;53.65;99763.19;4969099;28;119399;-83
2022/12/17 18:29:20;;;;;;;47.97;25.00;;;-1.40;81.20;;;-1.02;53.90;99764.88;4948846;28;124026;-81
2022/12/17 18:31:48;;;;;;;46.60;23.07;;;-1.40;81.20;;;-1.04;54.11;99755.28;4966332;28;123861;-80
2022/12/17 18:34:20;;;;;;;43.10;21.80;;;-1.40;81.40;;;-1.05;54.27;99759.03;4950991;28;119719;-81
2022/12/17 18:36:48;;;;;;;46.47;22.47;;;0.50;83.10;;;-1.05;54.31;99759.84;4949455;28;118820;-81
2022/12/17 18:39:54;;;;;;;51.23;22.90;;;-1.40;81.40;;;-1.01;53.96;99766.53;4971787;28;124146;-83
2022/12/17 18:45:07;;;;;;;47.30;23.63;;;-1.50;81.40;;;-1.13;53.65;99769.06;4971530;28;120897;-86
2022/12/17 18:47:33;;;;;;;45.70;21.77;;;-1.50;81.40;;;-1.13;54.38;99774.50;4971927;28;119392;-85
2022/12/17 18:50:00;;;;;;;49.20;23.03;;;-1.50;81.50;;;-1.11;53.72;99779.69;4951792;28;123838;-82
2022/12/17 18:52:26;;;;;;;57.70;28.50;;;-1.50;81.60;;;-1.12;54.30;99780.75;4965796;28;123211;-82
2022/12/17 18:54:53;;;;;;;58.70;26.67;;;-1.50;81.60;;;-1.13;54.16;99789.91;4966604;28;119304;-81
2022/12/17 18:57:19;;;;;;;53.73;25.27;;;-1.50;81.60;;;-1.15;54.28;99789.31;4968076;28;120159;-80
2022/12/17 18:59:46;;;;;;;56.63;26.57;;;-1.50;81.60;;;-1.16;54.65;99798.47;4969761;28;124029;-80
2022/12/17 19:02:14;;;;;;;62.23;27.17;;;-1.50;81.70;;;-1.19;54.34;99807.03;4967586;28;123564;-80
2022/12/17 19:04:40;;;;;;;59.30;26.17;;;-1.60;81.70;;;-1.25;54.24;99807.88;4953059;28;118747;-83
2022/12/17 19:07:07;;;;;;;47.10;23.67;;;-1.70;81.70;;;-1.29;54.60;99803.91;4970272;28;120180;-80
2022/12/17 19:09:34;;;;;;;51.37;24.13;;;-1.70;81.90;;;-1.31;54.25;99800.59;4954084;28;123745;-81
2022/12/17 19:12:05;;;;;;;54.43;25.33;;;-1.70;82.00;;;-1.29;54.76;99793.06;4932918;28;122649;-81
2022/12/17 19:14:32;;;;;;;51.07;23.57;;;-1.70;82.00;;;-1.29;54.05;99795.78;4958044;28;119957;-81
2022/12/17 19:16:59;;;;;;;52.07;24.10;;;-1.70;82.00;;;-1.28;54.49;99792.88;4952589;28;120065;-81
2022/12/17 19:19:26;;;;;;;55.17;24.50;;;-1.50;82.40;;;-1.20;55.11;99789.13;4938292;28;122850;-83
2022/12/17 19:21:54;;;;;;;53.30;25.30;;;-1.60;82.90;;;-1.11;54.67;99793.25;4966923;28;123207;-81
2022/12/17 19:24:22;;;;;;;56.33;24.50;;;-1.60;83.00;;;-1.03;55.18;99800.34;4967813;28;118796;-80
2022/12/17 19:26:49;;;;;;;63.70;27.67;;;-1.50;83.10;;;-0.94;54.57;99813.47;4968395;28;118858;-81
2022/12/17 19:29:17;;;;;;;52.90;24.47;;;-1.40;83.40;;;-0.91;54.69;99810.31;4947716;28;122852;-78
2022/12/17 19:31:44;;;;;;;60.87;27.30;;;-1.40;83.10;;;-0.92;54.54;99818.66;4965533;28;124116;-82
2022/12/17 19:34:14;;;;;;;56.63;25.60;;;-1.40;82.80;;;-0.95;54.25;99838.06;4970280;28;119739;-80
2022/12/17 19:36:41;;;;;;;61.00;26.40;;;-1.40;82.60;;;-1.04;54.25;99826.63;4966447;28;118934;-79
2022/12/17 19:39:14;;;;;;;56.47;26.03;;;-1.40;82.90;;;-1.08;53.81;99838.94;4962272;28;124014;-79
2022/12/17 19:41:40;;;;;;;52.00;23.63;;;-0.30;83.10;;;-1.15;53.90;99838.13;4964046;28;123783;-78
2022/12/17 19:44:13;;;;;;;54.43;25.80;;;-1.50;82.10;;;-1.15;54.56;99846.25;4964642;28;119364;-78
2022/12/17 19:46:42;;;;;;;50.57;23.00;;;-1.60;82.10;;;-1.18;53.74;99838.53;4964978;28;119054;-79
2022/12/17 19:49:14;;;;;;;54.83;25.33;;;-1.60;82.00;;;-1.21;54.13;99844.34;4965797;28;123257;-79
2022/12/17 19:51:42;;;;;;;45.17;23.97;;;-1.60;81.90;;;-1.34;53.79;99846.06;4968870;28;123859;-76
2022/12/17 19:54:12;;;;;;;49.90;24.27;;;-1.70;81.60;;;-1.43;53.80;99849.16;4964816;28;119335;-79
2022/12/17 19:56:39;;;;;;;43.70;22.07;;;-1.80;81.50;;;-1.52;53.65;99845.00;4965614;28;119546;-81
2022/12/17 19:59:07;;;;;;;53.20;24.90;;;-1.80;81.50;;;-1.61;54.29;99842.50;4969116;28;123765;-79
2022/12/17 20:01:43;;;;;;;57.20;22.70;;;-1.90;81.50;;;-1.67;53.88;99843.31;4952372;28;122743;-84
2022/12/17 20:04:12;;;;;;;56.87;23.77;;;-2.90;80.70;;;-1.72;54.28;99836.84;4950354;28;119974;-78
2022/12/17 20:06:38;;;;;;;57.17;24.67;;;-2.10;81.60;;;-1.76;54.48;99841.03;4970214;28;119884;-79
2022/12/17 20:09:06;;;;;;;45.73;23.37;;;-2.10;81.80;;;-1.78;54.15;99836.63;4968380;28;123269;-79
2022/12/17 20:11:33;;;;;;;66.10;30.50;;;-2.10;81.90;;;-1.76;54.61;99849.97;4957951;28;123737;-81
2022/12/17 20:14:12;;;;;;;57.33;26.67;;;-2.10;82.00;;;-1.73;54.31;99848.75;4968455;28;119715;-80
2022/12/17 20:16:48;;;;;;;55.80;25.20;;;-2.20;82.10;;;-1.74;54.79;99847.09;4967693;28;119074;-81
2022/12/17 20:19:21;;;;;;;53.70;23.43;;;-2.20;82.20;;;-1.73;55.13;99835.19;4951846;28;124045;-79
2022/12/17 20:21:48;;;;;;;45.63;23.80;;;-2.20;82.30;;;-1.72;54.90;99840.41;4952910;28;122432;-78
2022/12/17 20:24:16;;;;;;;43.33;22.30;;;-2.10;82.40;;;-1.73;54.77;99838.72;4967429;28;119078;-80
2022/12/17 20:26:45;;;;;;;40.47;21.60;;;-2.10;82.20;;;-1.72;54.92;99835.00;4969979;28;118976;-85
2022/12/17 20:29:12;;;;;;;50.60;23.83;;;-2.10;82.20;;;-1.73;54.52;99833.31;4988790;28;122751;-84
2022/12/17 20:31:39;;;;;;;55.27;23.80;;;-2.20;82.10;;;-1.76;54.91;99833.72;4979135;28;123135;-80
2022/12/17 20:34:07;;;;;;;54.10;24.63;;;-2.10;82.20;;;-1.77;54.84;99834.78;4965704;28;119120;-78
2022/12/17 20:36:34;;;;;;;54.93;24.33;;;-2.20;82.10;;;-1.81;54.28;99826.22;4966595;28;118964;-85
2022/12/17 20:39:06;;;;;;;52.90;24.57;;;-1.00;83.20;;;-1.85;54.60;99833.09;4961748;28;122207;-85
2022/12/17 20:41:35;;;;;;;49.40;24.43;;;-2.20;82.00;;;-1.91;54.46;99830.38;4979269;28;122746;-85
2022/12/17 20:44:05;;;;;;;50.97;22.87;;;-2.30;81.90;;;-1.98;54.34;99824.13;4985747;28;118368;-86
2022/12/17 20:46:43;;;;;;;47.97;22.57;;;-2.30;81.90;;;-2.07;54.61;99818.03;5078404;27;96555;-79
2022/12/17 20:49:49;;;;;;;54.97;25.73;;;0.10;85.20;;;-2.04;54.45;99825.78;5025555;27;109700;-79
2022/12/17 20:52:16;;;;;;;46.40;24.27;;;-4.40;80.00;;;-2.09;54.83;99822.84;5025225;28;123809;-78
2022/12/17 20:54:42;;;;;;;51.47;24.33;;;-2.60;81.70;;;-2.10;54.42;99826.59;5015099;28;124575;-79
2022/12/17 20:57:10;;;;;;;52.90;23.80;;;-1.60;82.60;;;-2.10;54.45;99823.88;5018690;28;106233;-77
2022/12/17 20:59:37;;;;;;;48.70;22.17;;;-2.40;81.80;;;-2.08;54.83;99838.06;5018286;27;109836;-79
2022/12/17 21:02:05;;;;;;;48.27;22.33;;;-2.40;81.80;;;-2.07;54.95;99837.84;5010304;28;123912;-78
2022/12/17 21:04:32;;;;;;;49.33;22.53;;;-2.40;81.90;;;-2.05;54.98;99838.47;5016217;28;123594;-78
2022/12/17 21:06:58;;;;;;;46.07;22.77;;;-2.40;82.00;;;-1.99;54.95;99834.09;5014998;28;107391;-79
2022/12/17 21:09:25;;;;;;;47.20;22.80;;;-2.40;82.40;;;-1.96;54.98;99832.84;5015319;28;109404;-78
2022/12/17 21:11:51;;;;;;;47.63;21.93;;;-0.80;83.70;;;-1.94;54.73;99834.31;4994353;28;124342;-78
2022/12/17 21:14:19;;;;;;;50.10;23.30;;;-2.40;82.30;;;-1.92;54.87;99821.41;4997430;28;123749;-79
2022/12/17 21:16:45;;;;;;;59.20;25.90;;;-2.40;82.30;;;-1.90;54.45;99830.19;5018710;28;106541;-79
2022/12/17 21:19:16;;;;;;;49.23;24.60;;;-2.40;82.40;;;-1.87;54.76;99827.06;4996185;28;109880;-77
2022/12/17 21:21:43;;;;;;;50.67;24.07;;;-2.30;82.50;;;-1.86;54.73;99836.84;4996881;28;124374;-78
2022/12/17 21:24:09;;;;;;;52.10;25.20;;;-2.30;82.40;;;-1.85;54.78;99827.69;4996825;28;122553;-78
2022/12/17 21:26:42;;;;;;;53.60;24.10;;;-2.30;82.30;;;-1.81;54.78;99837.06;4998006;28;108047;-77
2022/12/17 21:29:10;;;;;;;52.30;22.40;;;-2.30;82.30;;;-1.84;54.71;99821.22;5000314;28;109802;-80
2022/12/17 21:31:45;;;;;;;51.83;22.83;;;-2.30;82.20;;;-1.80;54.78;99832.47;4999551;28;123283;-78
2022/12/17 21:34:17;;;;;;;52.93;24.00;;;-2.30;82.20;;;-1.81;53.97;99834.34;4996766;28;122011;-77
2022/12/17 21:36:43;;;;;;;56.17;24.57;;;-2.20;82.30;;;-1.84;54.34;99837.47;4998879;28;107450;-77
2022/12/17 21:39:13;;;;;;;57.93;23.90;;;-2.30;82.10;;;-1.87;54.51;99835.19;5016859;28;109007;-77
2022/12/17 21:43:00;;;;;;;53.40;22.83;;;-2.10;82.20;;;-1.90;54.40;99840.19;4994125;28;123308;-79
2022/12/17 21:44:29;;;;;;;49.93;23.47;;;-2.30;82.10;;;-1.91;54.48;99843.91;4998256;28;123845;-78
2022/12/17 21:46:56;;;;;;;51.20;23.80;;;-2.30;82.10;;;-1.90;54.49;99843.72;4991766;28;107584;-78
2022/12/17 21:49:22;;;;;;;47.30;23.50;;;-2.30;82.20;;;-1.89;54.56;99839.97;4992307;28;110234;-78
2022/12/17 21:51:49;;;;;;;44.23;22.23;;;-2.20;82.20;;;-1.87;54.03;99843.31;4993274;28;124414;-76
2022/12/17 21:54:16;;;;;;;51.43;22.63;;;-2.30;82.10;;;-1.86;54.51;99839.53;4996782;28;123940;-80
2022/12/17 21:56:43;;;;;;;49.43;21.73;;;-2.30;82.20;;;-1.84;54.83;99848.31;4990741;28;106645;-79
2022/12/17 21:59:10;;;;;;;55.20;22.70;;;-2.30;82.20;;;-1.80;53.93;99848.72;4964361;28;109368;-79
2022/12/17 22:01:37;;;;;;;47.10;21.33;;;-2.20;82.30;;;-1.78;54.15;99846.66;4978811;28;124674;-78
2022/12/17 22:04:03;;;;;;;42.90;20.13;;;-2.20;82.20;;;-1.73;54.15;99854.16;4981461;28;122651;-79
2022/12/17 22:06:32;;;;;;;51.30;22.10;;;-0.60;83.60;;;-1.70;54.55;99853.75;4982908;28;107432;-79
2022/12/17 22:08:59;;;;;;;49.53;23.43;;;-2.10;82.20;;;-1.69;54.31;99841.84;4983255;28;110059;-79
2022/12/17 22:11:26;;;;;;;45.20;20.83;;;-2.10;82.10;;;-1.68;53.93;99851.66;4989812;28;124359;-78
2022/12/17 22:14:11;;;;;;;47.77;21.83;;;-2.10;82.10;;;-1.64;54.35;99861.03;4978097;28;123697;-80
2022/12/17 22:16:46;;;;;;;44.87;21.37;;;-2.10;82.00;;;-1.62;54.42;99867.09;4979362;28;107463;-79
2022/12/17 22:19:15;;;;;;;50.97;23.47;;;-2.10;81.90;;;-1.64;54.24;99880.00;4985375;28;109994;-79
2022/12/17 22:21:45;;;;;;;51.33;23.90;;;-2.10;81.90;;;-1.65;53.97;99865.63;4982406;28;123782;-81
2022/12/17 22:24:19;;;;;;;53.20;23.50;;;-2.10;81.90;;;-1.65;54.47;99854.78;4986733;28;124879;-80
2022/12/17 22:26:46;;;;;;;45.83;22.07;;;-2.10;81.90;;;-1.67;53.80;99851.44;4990826;28;107641;-79
2022/12/17 22:32:58;;;;;;;51.37;23.77;;;-1.80;82.10;;;-1.66;53.82;99852.31;4990738;28;109006;-78
2022/12/17 22:34:48;;;;;;;49.33;21.33;;;-2.10;81.90;;;-1.64;54.20;99852.91;4984312;28;124279;-79
2022/12/17 22:37:14;;;;;;;48.93;20.87;;;-2.10;81.90;;;-1.62;53.68;99850.84;4980643;28;106625;-79
2022/12/17 22:39:41;;;;;;;46.27;21.13;;;-1.60;82.40;;;-1.60;53.88;99865.00;4979555;28;109984;-79
2022/12/17 22:44:53;;;;;;;47.03;21.90;;;-2.00;82.00;;;-1.57;53.80;99864.59;4981531;28;123374;-80
2022/12/17 22:47:20;;;;;;;47.67;22.30;;;-2.00;82.00;;;-1.58;53.97;99862.94;4982303;28;106831;-80
2022/12/17 22:49:47;;;;;;;42.00;20.40;;;-2.00;81.90;;;-1.56;54.17;99860.84;5015304;28;111427;-80
2022/12/17 22:52:15;;;;;;;45.60;21.83;;;-2.00;81.90;;;-1.54;54.22;99858.75;5020453;28;122251;-78
2022/12/17 22:54:41;;;;;;;51.50;23.60;;;-2.00;81.90;;;-1.54;53.87;99856.03;4992684;28;124284;-81
2022/12/17 22:57:09;;;;;;;47.23;22.87;;;-2.00;81.90;;;-1.57;54.14;99848.34;5010451;28;106655;-79
2022/12/17 22:59:35;;;;;;;58.60;24.60;;;-1.40;82.30;;;-1.59;54.17;99847.69;4990085;28;109140;-76
2022/12/17 23:02:02;;;;;;;48.97;23.20;;;-2.00;81.80;;;-1.66;53.68;99849.59;4983759;28;124003;-77
2022/12/17 23:04:28;;;;;;;47.83;23.10;;;-1.40;82.20;;;-1.70;53.42;99845.63;4985941;28;124580;-78
2022/12/17 23:06:55;;;;;;;56.90;25.40;;;-1.70;81.90;;;-1.72;53.73;99853.97;4970814;28;107414;-79
2022/12/17 23:09:22;;;;;;;55.43;23.73;;;-2.10;81.60;;;-1.75;54.00;99848.09;4970224;28;109900;-78
2022/12/17 23:11:49;;;;;;;56.53;23.90;;;-0.30;83.10;;;-1.76;54.21;99851.88;4974698;28;124048;-78
2022/12/17 23:14:16;;;;;;;48.93;21.90;;;-2.20;81.40;;;-1.79;54.01;99851.22;4969797;28;123752;-78
2022/12/17 23:16:43;;;;;;;54.07;23.93;;;-2.20;81.40;;;-1.80;53.97;99849.56;4985868;28;106475;-78
2022/12/17 23:19:10;;;;;;;52.10;23.40;;;-2.00;81.50;;;-1.84;53.41;99848.31;4970501;28;110022;-78
2022/12/17 23:21:37;;;;;;;43.03;21.73;;;-2.20;81.20;;;-1.85;54.03;99862.91;4971735;28;124393;-78
2022/12/17 23:24:05;;;;;;;50.10;23.47;;;-2.20;81.20;;;-1.87;53.62;99864.97;4999344;28;122939;-77
2022/12/17 23:26:34;;;;;;;57.87;25.40;;;-2.20;81.30;;;-1.89;53.96;99868.91;4986310;28;106842;-78
2022/12/17 23:29:06;;;;;;;45.90;21.07;;;-2.00;81.50;;;-1.90;54.24;99868.09;4972014;28;109901;-78
2022/12/17 23:31:37;;;;;;;47.23;21.00;;;-2.30;81.40;;;-1.90;53.75;99865.38;4970034;28;123845;-77
2022/12/17 23:34:05;;;;;;;49.93;23.40;;;-2.30;81.50;;;-1.91;53.96;99857.44;4974272;28;123565;-78
2022/12/17 23:36:32;;;;;;;52.00;25.00;;;-2.30;81.50;;;-1.91;54.23;99858.28;4973046;28;107437;-78